Time;durP1;ratioP1;P1;durP2;ratioP2;P2;SDS_P1;SDS_P2;PMS_P1;PMS_P2;Temp;Humidity;BMP_temperature;BMP_pressure;BME280_temperature;BME280_humidity;BME280_pressure;Samples;Min_cycle;Max_cycle;Signal;HPM_P1;HPM_P2
2022/11/20 00:01:06;;;;;;;;;;;28.30;67.10;;;;;;5052322;28;20420;-74
2022/11/20 00:03:32;;;;;;;;;;;28.00;66.30;;;;;;5053568;28;19924;-72
2022/11/20 00:06:02;;;;;;;;;;;27.70;65.40;;;;;;5054803;28;19928;-73
2022/11/20 00:08:29;;;;;;;;;;;27.70;66.10;;;;;;5056143;28;19953;-74
2022/11/20 00:10:56;;;;;;;;;;;27.80;66.30;;;;;;5054891;28;20294;-74
2022/11/20 00:13:22;;;;;;;;;;;28.00;66.40;;;;;;5055917;28;20027;-75
2022/11/20 00:15:49;;;;;;;;;;;28.10;65.70;;;;;;5053921;28;19974;-75
2022/11/20 00:18:16;;;;;;;;;;;28.00;66.90;;;;;;5056680;28;20008;-75
2022/11/20 00:20:42;;;;;;;;;;;28.10;66.40;;;;;;5056062;28;19927;-75
2022/11/20 00:23:09;;;;;;;;;;;28.30;66.70;;;;;;5055294;28;19977;-74
2022/11/20 00:25:36;;;;;;;;;;;28.40;66.80;;;;;;5056623;28;19956;-73
2022/11/20 00:28:02;;;;;;;;;;;28.50;66.80;;;;;;5056134;28;19990;-76
2022/11/20 00:30:29;;;;;;;;;;;28.30;65.60;;;;;;5055830;28;20390;-74
2022/11/20 00:32:57;;;;;;;;;;;28.00;66.30;;;;;;5055759;28;19921;-73
2022/11/20 00:35:24;;;;;;;;;;;28.00;65.40;;;;;;5056071;28;19912;-73
2022/11/20 00:37:50;;;;;;;;;;;28.10;64.60;;;;;;5056079;28;19917;-74
2022/11/20 00:40:17;;;;;;;;;;;28.00;65.80;;;;;;5056776;28;19916;-74
2022/11/20 00:42:44;;;;;;;;;;;28.10;66.30;;;;;;5055231;28;19916;-75
2022/11/20 00:45:10;;;;;;;;;;;28.30;65.10;;;;;;5056122;28;19920;-74
2022/11/20 00:47:37;;;;;;;;;;;28.30;65.50;;;;;;5055166;28;19929;-73
2022/11/20 00:50:04;;;;;;;;;;;28.40;66.60;;;;;;5055735;28;19920;-72
2022/11/20 00:52:31;;;;;;;;;;;28.70;66.00;;;;;;5055497;28;19957;-73
2022/11/20 00:54:57;;;;;;;;;;;29.00;65.90;;;;;;5057266;28;20379;-73
2022/11/20 00:57:24;;;;;;;;;;;29.10;64.50;;;;;;5054444;28;19916;-73
2022/11/20 00:59:50;;;;;;;;;;;29.30;65.20;;;;;;5057426;28;19927;-74
2022/11/20 01:02:17;;;;;;;;;;;29.20;64.50;;;;;;5056415;28;19928;-73
2022/11/20 01:04:44;;;;;;;;;;;29.30;64.70;;;;;;5055930;28;19977;-72
2022/11/20 01:07:10;;;;;;;;;;;29.30;62.40;;;;;;5053794;28;19924;-73
2022/11/20 01:09:37;;;;;;;;;;;29.00;63.20;;;;;;5055271;28;20575;-73
2022/11/20 01:12:04;;;;;;;;;;;29.10;62.30;;;;;;5054695;28;19923;-72
2022/11/20 01:14:31;;;;;;;;;;;29.10;62.70;;;;;;5055994;28;19924;-71
2022/11/20 01:16:58;;;;;;;;;;;28.80;61.70;;;;;;5055115;28;19916;-72
2022/11/20 01:19:24;;;;;;;;;;;28.50;62.20;;;;;;5055605;28;19958;-73
2022/11/20 01:21:53;;;;;;;;;;;28.40;63.10;;;;;;5055962;28;20259;-74
2022/11/20 01:24:20;;;;;;;;;;;28.50;63.80;;;;;;5057732;28;19999;-72
2022/11/20 01:26:48;;;;;;;;;;;28.70;64.80;;;;;;5058416;28;19925;-73
2022/11/20 01:29:16;;;;;;;;;;;29.10;67.00;;;;;;5058645;28;19916;-73
2022/11/20 01:31:43;;;;;;;;;;;29.60;63.90;;;;;;5058719;28;19989;-72
2022/11/20 01:34:11;;;;;;;;;;;29.20;63.20;;;;;;5060269;28;20666;-73
2022/11/20 01:36:38;;;;;;;;;;;29.00;63.50;;;;;;5058409;28;19921;-73
2022/11/20 01:39:06;;;;;;;;;;;29.00;65.50;;;;;;5058832;28;19920;-73
2022/11/20 01:44:20;;;;;;;;;;;29.20;62.90;;;;;;5058859;28;19975;-74
2022/11/20 01:46:57;;;;;;;;;;;29.20;62.90;;;;;;5058333;28;19925;-73
2022/11/20 01:49:27;;;;;;;;;;;29.40;63.10;;;;;;5058448;28;19940;-73
2022/11/20 01:52:02;;;;;;;;;;;29.30;63.20;;;;;;5057683;28;19916;-72
2022/11/20 01:54:51;;;;;;;;;;;29.50;64.10;;;;;;5059938;28;19926;-73
2022/11/20 01:57:19;;;;;;;;;;;29.50;63.40;;;;;;5050130;28;20465;-72
2022/11/20 01:59:51;;;;;;;;;;;29.70;63.50;;;;;;5059957;28;20457;-73
2022/11/20 02:02:18;;;;;;;;;;;29.80;63.30;;;;;;5058051;28;19989;-72
2022/11/20 02:04:44;;;;;;;;;;;29.90;63.10;;;;;;5060030;28;19920;-71
2022/11/20 02:07:12;;;;;;;;;;;30.00;62.70;;;;;;5059793;28;20003;-73
2022/11/20 02:09:38;;;;;;;;;;;29.50;62.80;;;;;;5058943;28;20349;-72
2022/11/20 02:13:42;;;;;;;;;;;29.50;63.40;;;;;;5058538;28;19920;-73
2022/11/20 02:14:52;;;;;;;;;;;29.30;62.60;;;;;;5057882;28;19916;-72
2022/11/20 02:17:18;;;;;;;;;;;29.20;64.30;;;;;;5059539;28;19916;-72
2022/11/20 02:19:45;;;;;;;;;;;29.20;62.90;;;;;;5057412;28;19921;-72
2022/11/20 02:22:19;;;;;;;;;;;29.20;63.70;;;;;;5053979;28;19994;-74
2022/11/20 02:24:46;;;;;;;;;;;29.00;63.60;;;;;;5057998;28;19924;-73
2022/11/20 02:27:14;;;;;;;;;;;28.20;65.20;;;;;;5056427;28;20371;-72
2022/11/20 02:29:52;;;;;;;;;;;28.20;65.90;;;;;;5059615;28;19928;-73
2022/11/20 02:32:22;;;;;;;;;;;28.00;64.60;;;;;;5058507;28;19916;-72
2022/11/20 02:34:49;;;;;;;;;;;27.80;65.40;;;;;;5057941;28;22415;-70
2022/11/20 02:37:16;;;;;;;;;;;27.80;66.00;;;;;;5063544;28;20367;-73
2022/11/20 02:39:43;;;;;;;;;;;27.40;65.90;;;;;;5056693;28;19921;-73
2022/11/20 02:42:10;;;;;;;;;;;27.40;66.60;;;;;;5056911;28;19924;-72
2022/11/20 02:44:36;;;;;;;;;;;27.50;66.30;;;;;;5057977;28;20007;-72
2022/11/20 02:47:03;;;;;;;;;;;27.70;66.50;;;;;;5056790;28;20031;-72
2022/11/20 02:49:30;;;;;;;;;;;28.00;65.50;;;;;;5055082;28;19927;-74
2022/11/20 02:51:57;;;;;;;;;;;28.00;65.40;;;;;;5058490;28;19931;-75
2022/11/20 02:54:24;;;;;;;;;;;28.10;65.70;;;;;;5056824;28;20043;-72
2022/11/20 02:56:50;;;;;;;;;;;28.60;65.50;;;;;;5057218;28;19943;-74
2022/11/20 02:59:17;;;;;;;;;;;28.80;64.80;;;;;;5056842;28;19991;-73
2022/11/20 03:01:44;;;;;;;;;;;29.20;65.10;;;;;;5037350;28;20238;-76
2022/11/20 03:04:10;;;;;;;;;;;29.10;63.50;;;;;;5056794;28;20485;-75
2022/11/20 03:06:37;;;;;;;;;;;28.60;65.70;;;;;;5054898;28;19936;-74
2022/11/20 03:09:04;;;;;;;;;;;28.70;64.30;;;;;;5057170;28;19935;-74
2022/11/20 03:11:30;;;;;;;;;;;28.70;65.50;;;;;;5056615;28;19924;-73
2022/11/20 03:13:57;;;;;;;;;;;28.20;64.70;;;;;;5055890;28;19950;-74
2022/11/20 03:16:23;;;;;;;;;;;28.10;65.50;;;;;;5053972;28;20785;-74
2022/11/20 03:18:52;;;;;;;;;;;28.50;65.40;;;;;;5055278;28;19923;-72
2022/11/20 03:21:19;;;;;;;;;;;28.50;64.30;;;;;;5055311;28;19924;-73
2022/11/20 03:23:45;;;;;;;;;;;28.40;64.80;;;;;;5059540;28;19917;-72
2022/11/20 03:26:12;;;;;;;;;;;28.60;66.00;;;;;;5056086;28;19920;-74
2022/11/20 03:28:39;;;;;;;;;;;28.70;64.60;;;;;;5054201;28;19927;-72
2022/11/20 03:31:07;;;;;;;;;;;28.40;64.90;;;;;;5061156;28;19948;-71
2022/11/20 03:33:33;;;;;;;;;;;28.30;63.70;;;;;;5055659;28;19975;-73
2022/11/20 03:36:05;;;;;;;;;;;27.90;63.70;;;;;;5056056;28;20045;-72
2022/11/20 03:38:32;;;;;;;;;;;27.70;63.70;;;;;;5058982;28;20014;-71
2022/11/20 03:41:00;;;;;;;;;;;27.50;63.20;;;;;;5055006;28;19916;-72
2022/11/20 03:43:27;;;;;;;;;;;27.30;64.30;;;;;;5057878;28;19927;-74
2022/11/20 03:45:53;;;;;;;;;;;27.40;64.10;;;;;;5054688;28;19962;-72
2022/11/20 03:48:20;;;;;;;;;;;27.30;66.10;;;;;;5057810;28;20314;-74
2022/11/20 03:50:47;;;;;;;;;;;27.30;64.40;;;;;;5054668;28;19981;-73
2022/11/20 03:53:15;;;;;;;;;;;27.10;66.20;;;;;;5057107;28;19917;-74
2022/11/20 03:55:41;;;;;;;;;;;27.20;65.60;;;;;;5055775;28;19926;-71
2022/11/20 03:58:09;;;;;;;;;;;27.10;65.60;;;;;;5056731;28;19920;-74
2022/11/20 04:00:35;;;;;;;;;;;27.30;66.00;;;;;;5055127;28;19916;-75
2022/11/20 04:03:02;;;;;;;;;;;27.40;64.70;;;;;;5054846;28;20298;-74
2022/11/20 04:05:29;;;;;;;;;;;27.30;65.70;;;;;;5059914;28;19927;-74
2022/11/20 04:07:56;;;;;;;;;;;27.20;66.40;;;;;;5056309;28;19928;-72
2022/11/20 04:10:23;;;;;;;;;;;27.30;66.20;;;;;;5058548;28;20070;-74
2022/11/20 04:12:50;;;;;;;;;;;27.70;65.00;;;;;;5054896;28;20017;-73
2022/11/20 04:15:16;;;;;;;;;;;27.80;65.10;;;;;;5056896;28;20011;-72
2022/11/20 04:17:43;;;;;;;;;;;27.80;64.00;;;;;;5056341;28;19920;-73
2022/11/20 04:20:10;;;;;;;;;;;27.80;63.70;;;;;;5056427;28;19947;-72
2022/11/20 04:22:37;;;;;;;;;;;27.70;63.80;;;;;;5054391;28;19912;-72
2022/11/20 04:25:04;;;;;;;;;;;27.60;64.20;;;;;;5057695;28;19916;-74
2022/11/20 04:27:32;;;;;;;;;;;27.20;62.70;;;;;;5052958;28;20031;-74
2022/11/20 04:29:59;;;;;;;;;;;27.00;64.80;;;;;;5057064;28;19920;-72
2022/11/20 04:32:26;;;;;;;;;;;26.80;64.30;;;;;;5055574;28;19926;-73
2022/11/20 04:34:52;;;;;;;;;;;27.10;64.40;;;;;;5061801;28;20007;-72
2022/11/20 04:37:19;;;;;;;;;;;27.20;64.00;;;;;;5055767;28;20615;-74
2022/11/20 04:39:45;;;;;;;;;;;27.50;64.70;;;;;;5054418;28;19917;-72
2022/11/20 04:42:30;;;;;;;;;;;27.70;65.70;;;;;;5055822;28;19924;-75
2022/11/20 04:44:57;;;;;;;;;;;27.50;64.30;;;;;;5057451;28;19916;-74
2022/11/20 04:47:24;;;;;;;;;;;27.30;63.00;;;;;;5055062;28;20477;-76
2022/11/20 04:49:51;;;;;;;;;;;27.30;63.00;;;;;;5053995;28;19916;-73
2022/11/20 04:52:17;;;;;;;;;;;27.30;62.10;;;;;;5053201;28;19985;-73
2022/11/20 04:54:44;;;;;;;;;;;27.50;62.20;;;;;;5053830;28;19912;-74
2022/11/20 04:57:10;;;;;;;;;;;27.60;62.10;;;;;;5056758;28;20438;-73
2022/11/20 04:59:37;;;;;;;;;;;27.60;62.70;;;;;;5056443;28;20317;-75
2022/11/20 05:02:04;;;;;;;;;;;27.60;61.50;;;;;;5055579;28;19920;-74
2022/11/20 05:04:30;;;;;;;;;;;27.50;59.80;;;;;;5055917;28;19920;-73
2022/11/20 05:06:57;;;;;;;;;;;27.30;61.20;;;;;;5055928;28;19924;-76
2022/11/20 05:09:24;;;;;;;;;;;27.40;62.30;;;;;;5055391;28;19935;-76
2022/11/20 05:11:50;;;;;;;;;;;27.40;61.20;;;;;;5053947;28;19921;-76
2022/11/20 05:14:17;;;;;;;;;;;27.50;62.60;;;;;;5055732;28;19927;-76
2022/11/20 05:16:43;;;;;;;;;;;27.70;61.40;;;;;;5056891;28;20353;-77
2022/11/20 05:19:10;;;;;;;;;;;27.80;60.30;;;;;;5056619;28;19931;-75
2022/11/20 05:21:37;;;;;;;;;;;27.70;59.70;;;;;;5053455;28;19916;-77
2022/11/20 05:24:04;;;;;;;;;;;27.50;58.70;;;;;;5055262;28;20286;-75
2022/11/20 05:26:31;;;;;;;;;;;27.30;57.10;;;;;;5054722;28;19916;-74
2022/11/20 05:28:57;;;;;;;;;;;27.10;58.40;;;;;;5059899;28;19917;-73
2022/11/20 05:31:25;;;;;;;;;;;27.00;57.70;;;;;;5055527;28;19920;-75
2022/11/20 05:33:52;;;;;;;;;;;26.80;56.60;;;;;;5055430;28;19917;-73
2022/11/20 05:36:18;;;;;;;;;;;26.70;57.50;;;;;;5053938;28;19920;-73
2022/11/20 05:38:45;;;;;;;;;;;26.70;57.80;;;;;;5056756;28;19916;-73
2022/11/20 05:41:13;;;;;;;;;;;26.60;58.30;;;;;;5054561;28;19921;-75
2022/11/20 05:43:40;;;;;;;;;;;26.60;57.50;;;;;;5054918;28;19920;-73
2022/11/20 05:46:08;;;;;;;;;;;26.60;58.40;;;;;;5053920;28;19999;-75
2022/11/20 05:48:35;;;;;;;;;;;26.60;59.20;;;;;;5056741;28;19935;-73
2022/11/20 05:51:02;;;;;;;;;;;26.60;59.30;;;;;;5054837;28;20420;-75
2022/11/20 05:53:29;;;;;;;;;;;26.50;59.40;;;;;;5055946;28;19934;-73
2022/11/20 05:55:57;;;;;;;;;;;26.50;59.50;;;;;;5053671;28;19942;-74
2022/11/20 05:58:23;;;;;;;;;;;26.40;59.40;;;;;;5055918;28;19969;-76
2022/11/20 06:00:50;;;;;;;;;;;26.30;59.00;;;;;;5054417;28;20417;-79
2022/11/20 06:03:17;;;;;;;;;;;26.10;59.40;;;;;;5056897;28;20289;-72
2022/11/20 06:05:43;;;;;;;;;;;26.10;60.10;;;;;;5053898;28;19925;-75
2022/11/20 06:08:10;;;;;;;;;;;26.10;60.10;;;;;;5055003;28;20002;-72
2022/11/20 06:10:37;;;;;;;;;;;26.10;59.10;;;;;;5058545;28;20015;-72
2022/11/20 06:13:03;;;;;;;;;;;26.00;59.30;;;;;;5058922;28;19939;-74
2022/11/20 06:15:30;;;;;;;;;;;25.90;59.30;;;;;;5058175;28;19924;-74
2022/11/20 06:17:58;;;;;;;;;;;25.90;60.20;;;;;;5058423;28;19912;-73
2022/11/20 06:20:25;;;;;;;;;;;25.80;60.40;;;;;;5058665;28;19916;-75
2022/11/20 06:22:52;;;;;;;;;;;25.80;60.70;;;;;;5057950;28;20382;-77
2022/11/20 06:25:18;;;;;;;;;;;25.70;59.80;;;;;;5058358;28;19978;-74
2022/11/20 06:27:45;;;;;;;;;;;25.70;60.40;;;;;;5059705;28;20001;-74
2022/11/20 06:30:12;;;;;;;;;;;25.70;58.80;;;;;;5059832;28;19949;-72
2022/11/20 06:32:38;;;;;;;;;;;25.70;58.70;;;;;;5064791;28;19943;-74
2022/11/20 06:35:05;;;;;;;;;;;25.70;59.70;;;;;;5060240;28;19916;-75
2022/11/20 06:37:32;;;;;;;;;;;25.60;60.30;;;;;;5059631;28;19923;-76
2022/11/20 06:39:58;;;;;;;;;;;25.60;60.70;;;;;;5039247;28;19927;-73
2022/11/20 06:42:25;;;;;;;;;;;25.50;60.90;;;;;;5055634;28;22736;-79
2022/11/20 06:44:52;;;;;;;;;;;25.50;60.70;;;;;;5054172;28;20010;-74
2022/11/20 06:47:18;;;;;;;;;;;25.40;60.50;;;;;;5050764;28;21038;-75
2022/11/20 06:49:45;;;;;;;;;;;25.30;60.70;;;;;;5055954;28;20864;-78
2022/11/20 06:52:12;;;;;;;;;;;25.10;61.20;;;;;;5052438;28;20334;-77
2022/11/20 06:54:38;;;;;;;;;;;25.00;61.40;;;;;;5057316;28;19916;-78
2022/11/20 06:57:05;;;;;;;;;;;25.10;61.30;;;;;;5057442;28;19921;-74
2022/11/20 06:59:31;;;;;;;;;;;25.10;61.30;;;;;;5055990;28;19921;-75
2022/11/20 07:01:58;;;;;;;;;;;25.00;61.30;;;;;;5056873;28;19920;-75
2022/11/20 07:04:25;;;;;;;;;;;25.00;61.10;;;;;;5059802;28;20401;-76
2022/11/20 07:06:51;;;;;;;;;;;25.00;61.20;;;;;;5050962;28;19925;-71
2022/11/20 07:09:18;;;;;;;;;;;24.90;61.50;;;;;;5052516;28;20424;-75
2022/11/20 07:11:45;;;;;;;;;;;24.80;61.90;;;;;;5054527;28;20018;-73
2022/11/20 07:14:12;;;;;;;;;;;24.60;61.80;;;;;;5054248;28;19936;-73
2022/11/20 07:16:38;;;;;;;;;;;24.50;61.90;;;;;;5054248;28;19917;-72
2022/11/20 07:19:05;;;;;;;;;;;24.40;62.10;;;;;;5055420;28;19921;-73
2022/11/20 07:21:32;;;;;;;;;;;24.40;62.50;;;;;;5053041;28;20348;-73
2022/11/20 07:23:58;;;;;;;;;;;24.30;62.30;;;;;;5057033;28;19917;-74
2022/11/20 07:26:25;;;;;;;;;;;24.30;62.60;;;;;;5057973;28;19944;-76
2022/11/20 07:28:52;;;;;;;;;;;24.30;63.00;;;;;;5060076;28;20382;-75
2022/11/20 07:31:18;;;;;;;;;;;24.20;63.00;;;;;;5062808;28;19916;-72
2022/11/20 07:33:45;;;;;;;;;;;24.20;63.50;;;;;;5058323;28;19917;-73
2022/11/20 07:36:12;;;;;;;;;;;24.10;63.60;;;;;;5057880;28;19921;-73
2022/11/20 07:38:38;;;;;;;;;;;24.00;63.90;;;;;;5059887;28;19916;-74
2022/11/20 07:41:05;;;;;;;;;;;23.90;63.60;;;;;;5059522;28;19965;-73
2022/11/20 07:43:32;;;;;;;;;;;23.90;63.90;;;;;;5057421;28;19916;-73
2022/11/20 07:45:59;;;;;;;;;;;23.90;63.20;;;;;;5055159;28;20805;-74
2022/11/20 07:48:26;;;;;;;;;;;23.70;63.30;;;;;;5057023;28;19929;-72
2022/11/20 07:50:56;;;;;;;;;;;23.70;63.40;;;;;;5052506;28;19916;-72
2022/11/20 07:53:23;;;;;;;;;;;23.60;63.00;;;;;;5055308;28;19917;-76
2022/11/20 07:55:52;;;;;;;;;;;23.50;62.90;;;;;;5056343;28;19916;-72
2022/11/20 07:58:19;;;;;;;;;;;23.40;63.40;;;;;;5054308;28;20004;-72
2022/11/20 08:00:46;;;;;;;;;;;23.30;63.80;;;;;;5054177;28;20458;-73
2022/11/20 08:03:13;;;;;;;;;;;23.20;64.20;;;;;;5052189;28;19928;-74
2022/11/20 08:05:40;;;;;;;;;;;23.10;64.30;;;;;;5051214;28;19966;-73
2022/11/20 08:08:07;;;;;;;;;;;23.00;64.00;;;;;;5035958;28;20410;-73
2022/11/20 08:10:34;;;;;;;;;;;23.00;64.40;;;;;;5055868;28;19928;-73
2022/11/20 08:15:49;;;;;;;;;;;22.80;63.70;;;;;;5053672;28;19923;-73
2022/11/20 08:18:17;;;;;;;;;;;22.70;63.60;;;;;;5055808;28;19970;-74
2022/11/20 08:20:44;;;;;;;;;;;22.70;63.50;;;;;;5054369;28;19917;-72
2022/11/20 08:23:11;;;;;;;;;;;22.60;64.00;;;;;;5056886;28;19964;-76
2022/11/20 08:25:38;;;;;;;;;;;22.50;63.90;;;;;;5051821;28;19955;-73
2022/11/20 08:28:06;;;;;;;;;;;22.40;63.30;;;;;;5055317;28;19929;-73
2022/11/20 08:30:33;;;;;;;;;;;22.40;63.10;;;;;;5055647;28;20082;-74
2022/11/20 08:33:04;;;;;;;;;;;22.30;63.40;;;;;;5056189;28;19916;-78
2022/11/20 08:35:35;;;;;;;;;;;22.30;62.80;;;;;;5056369;28;19924;-75
2022/11/20 08:38:05;;;;;;;;;;;22.30;63.50;;;;;;5050627;28;19928;-75
2022/11/20 08:40:32;;;;;;;;;;;22.20;63.80;;;;;;5052060;28;20448;-74
2022/11/20 08:42:59;;;;;;;;;;;22.10;63.80;;;;;;5055499;28;20817;-76
2022/11/20 08:45:26;;;;;;;;;;;22.00;64.10;;;;;;5054249;28;19946;-73
2022/11/20 08:47:52;;;;;;;;;;;22.00;64.40;;;;;;5056571;28;20002;-75
2022/11/20 08:50:19;;;;;;;;;;;21.90;64.60;;;;;;5056329;28;20035;-76
2022/11/20 08:52:46;;;;;;;;;;;21.70;64.90;;;;;;5054074;28;19927;-73
2022/11/20 08:55:13;;;;;;;;;;;21.60;65.10;;;;;;5055436;28;19924;-75
2022/11/20 08:57:39;;;;;;;;;;;21.50;65.20;;;;;;5053100;28;19978;-78
2022/11/20 09:00:07;;;;;;;;;;;21.50;65.40;;;;;;5056507;28;19913;-77
2022/11/20 09:02:34;;;;;;;;;;;21.40;65.60;;;;;;5054700;28;20003;-75
2022/11/20 09:05:02;;;;;;;;;;;21.40;65.10;;;;;;5054146;28;20043;-74
2022/11/20 09:07:29;;;;;;;;;;;21.40;65.00;;;;;;5038796;28;20081;-75
2022/11/20 09:09:55;;;;;;;;;;;21.40;65.40;;;;;;5060774;28;19971;-76
2022/11/20 09:12:22;;;;;;;;;;;21.30;64.90;;;;;;5051643;28;19968;-76
2022/11/20 09:14:49;;;;;;;;;;;21.30;65.20;;;;;;5054077;28;20019;-75
2022/11/20 09:17:15;;;;;;;;;;;21.30;64.90;;;;;;5053639;28;19960;-76
2022/11/20 09:19:42;;;;;;;;;;;21.20;65.50;;;;;;5051953;28;19920;-74
2022/11/20 09:22:09;;;;;;;;;;;21.20;65.70;;;;;;5053900;28;20164;-73
2022/11/20 09:24:36;;;;;;;;;;;21.10;65.30;;;;;;5056464;28;19938;-72
2022/11/20 09:27:04;;;;;;;;;;;21.10;65.70;;;;;;5034738;28;19924;-76
2022/11/20 09:29:30;;;;;;;;;;;21.00;65.40;;;;;;5057771;28;19913;-75
2022/11/20 09:31:57;;;;;;;;;;;20.90;65.70;;;;;;5056213;28;19951;-75
2022/11/20 09:34:24;;;;;;;;;;;20.90;66.10;;;;;;5054593;28;20370;-76
2022/11/20 09:36:50;;;;;;;;;;;20.80;66.30;;;;;;5054288;28;19920;-76
2022/11/20 09:39:17;;;;;;;;;;;20.70;66.40;;;;;;5054715;28;19913;-73
2022/11/20 09:42:03;;;;;;;;;;;20.70;66.40;;;;;;5055426;28;19921;-75
2022/11/20 09:44:33;;;;;;;;;;;20.70;66.60;;;;;;5058772;28;19927;-73
2022/11/20 09:47:35;;;;;;;;;;;20.70;66.40;;;;;;5059132;28;19982;-73
2022/11/20 09:50:21;;;;;;;;;;;20.70;66.80;;;;;;4956554;28;20635;-74
2022/11/20 09:52:59;;;;;;;;;;;20.70;67.00;;;;;;5051432;28;19927;-73
2022/11/20 09:55:26;;;;;;;;;;;20.60;67.50;;;;;;5058007;28;19923;-74
2022/11/20 09:57:52;;;;;;;;;;;20.50;67.40;;;;;;5057786;28;19927;-74
2022/11/20 10:00:23;;;;;;;;;;;20.50;67.60;;;;;;5057297;28;19931;-72
2022/11/20 10:02:56;;;;;;;;;;;20.40;67.90;;;;;;5058769;28;19956;-71
2022/11/20 10:05:32;;;;;;;;;;;20.30;67.90;;;;;;5059433;28;19951;-75
2022/11/20 10:08:09;;;;;;;;;;;20.30;68.30;;;;;;5058351;28;20243;-74
2022/11/20 10:10:36;;;;;;;;;;;20.20;68.50;;;;;;5055443;28;19928;-72
2022/11/20 10:13:02;;;;;;;;;;;20.30;68.60;;;;;;5055266;28;19920;-73
2022/11/20 10:15:47;;;;;;;;;;;20.30;68.70;;;;;;5057855;28;20003;-74
2022/11/20 10:18:32;;;;;;;;;;;20.20;68.80;;;;;;5056521;28;19927;-73
2022/11/20 10:20:59;;;;;;;;;;;20.20;69.20;;;;;;5057337;28;19920;-71
2022/11/20 10:23:31;;;;;;;;;;;20.10;69.30;;;;;;5058508;28;19920;-73
2022/11/20 10:26:18;;;;;;;;;;;20.10;69.70;;;;;;5055822;28;20303;-72
2022/11/20 10:28:44;;;;;;;;;;;19.90;70.20;;;;;;5055990;28;20413;-72
2022/11/20 10:31:32;;;;;;;;;;;19.90;70.10;;;;;;5057348;28;19955;-77
2022/11/20 10:34:01;;;;;;;;;;;19.90;69.80;;;;;;5058272;28;19924;-73
2022/11/20 10:36:30;;;;;;;;;;;20.00;70.20;;;;;;5068907;28;19919;-72
2022/11/20 10:39:19;;;;;;;;;;;20.10;69.60;;;;;;5064087;28;20050;-72
2022/11/20 10:41:48;;;;;;;;;;;20.10;69.70;;;;;;5059041;28;19944;-76
2022/11/20 10:47:05;;;;;;;;;;;20.10;70.50;;;;;;5056060;28;20017;-73
2022/11/20 10:49:34;;;;;;;;;;;20.10;70.40;;;;;;5058402;28;19923;-74
2022/11/20 10:52:00;;;;;;;;;;;20.00;70.20;;;;;;5058331;28;19912;-76
2022/11/20 10:54:33;;;;;;;;;;;19.90;70.50;;;;;;5059401;28;19947;-76
2022/11/20 10:57:10;;;;;;;;;;;19.80;70.70;;;;;;5054268;28;19920;-73
2022/11/20 10:59:55;;;;;;;;;;;19.70;71.10;;;;;;5057971;28;20363;-78
2022/11/20 11:02:24;;;;;;;;;;;19.80;70.20;;;;;;5057347;28;19920;-75
2022/11/20 11:04:52;;;;;;;;;;;19.90;70.30;;;;;;5058481;28;19927;-71
2022/11/20 11:07:27;;;;;;;;;;;20.10;69.80;;;;;;5056136;28;19933;-74
2022/11/20 11:09:55;;;;;;;;;;;20.00;69.90;;;;;;5056694;28;19928;-75
2022/11/20 11:12:26;;;;;;;;;;;20.00;69.90;;;;;;5056166;28;19923;-73
2022/11/20 11:14:54;;;;;;;;;;;20.00;70.20;;;;;;5056392;28;19921;-73
2022/11/20 11:17:22;;;;;;;;;;;20.00;69.90;;;;;;5058670;28;19919;-73
2022/11/20 11:20:18;;;;;;;;;;;20.00;70.70;;;;;;5057343;28;19921;-73
2022/11/20 11:22:49;;;;;;;;;;;20.00;70.10;;;;;;5041962;28;19920;-73
2022/11/20 11:25:22;;;;;;;;;;;19.90;70.10;;;;;;5055821;28;19920;-73
2022/11/20 11:27:49;;;;;;;;;;;19.90;70.50;;;;;;5056741;28;19928;-73
2022/11/20 11:30:17;;;;;;;;;;;19.90;70.30;;;;;;5056523;28;20299;-73
2022/11/20 11:32:45;;;;;;;;;;;19.90;69.80;;;;;;5056285;28;19917;-73
2022/11/20 11:35:22;;;;;;;;;;;19.80;70.10;;;;;;5056089;28;20332;-73
2022/11/20 11:37:49;;;;;;;;;;;19.80;70.30;;;;;;5056092;28;19923;-72
2022/11/20 11:40:17;;;;;;;;;;;19.80;70.00;;;;;;5058367;28;19920;-77
2022/11/20 11:42:45;;;;;;;;;;;19.80;70.40;;;;;;5054928;28;19966;-75
2022/11/20 11:45:17;;;;;;;;;;;19.80;71.00;;;;;;5054968;28;20853;-74
2022/11/20 11:47:43;;;;;;;;;;;19.70;70.80;;;;;;5053965;28;20386;-75
2022/11/20 11:50:10;;;;;;;;;;;19.60;71.10;;;;;;5055265;28;19924;-78
2022/11/20 11:52:55;;;;;;;;;;;19.60;70.90;;;;;;5054808;28;20527;-74
2022/11/20 11:55:41;;;;;;;;;;;19.60;70.50;;;;;;5055605;28;20379;-70
2022/11/20 11:58:29;;;;;;;;;;;19.60;70.70;;;;;;5054910;28;19924;-74
2022/11/20 12:01:13;;;;;;;;;;;19.50;70.90;;;;;;5054272;28;19956;-74
2022/11/20 12:03:41;;;;;;;;;;;19.50;71.20;;;;;;5056797;28;19919;-77
2022/11/20 12:06:14;;;;;;;;;;;19.50;71.90;;;;;;5054002;28;20628;-75
2022/11/20 12:08:47;;;;;;;;;;;19.40;71.50;;;;;;5057892;28;19946;-76
2022/11/20 12:11:18;;;;;;;;;;;19.30;71.70;;;;;;5056222;28;19931;-76
2022/11/20 12:13:54;;;;;;;;;;;19.20;72.00;;;;;;5055154;28;19920;-74
2022/11/20 12:16:21;;;;;;;;;;;19.20;72.00;;;;;;5054665;28;20034;-72
2022/11/20 12:18:49;;;;;;;;;;;19.10;72.20;;;;;;5055161;28;20433;-77
2022/11/20 12:21:34;;;;;;;;;;;19.10;72.00;;;;;;5054033;28;19920;-73
2022/11/20 12:24:10;;;;;;;;;;;19.10;71.70;;;;;;5055215;28;19912;-76
2022/11/20 12:26:45;;;;;;;;;;;19.10;71.60;;;;;;5052702;28;20279;-78
2022/11/20 12:29:19;;;;;;;;;;;19.10;71.80;;;;;;5054835;28;19924;-75
2022/11/20 12:32:00;;;;;;;;;;;19.00;71.80;;;;;;5055657;28;19928;-73
2022/11/20 12:34:33;;;;;;;;;;;19.10;71.50;;;;;;5054898;28;19942;-73
2022/11/20 12:37:01;;;;;;;;;;;19.00;72.00;;;;;;5054473;28;20400;-75
2022/11/20 12:39:34;;;;;;;;;;;19.00;72.00;;;;;;5053222;28;19974;-75
2022/11/20 12:45:22;;;;;;;;;;;19.00;71.70;;;;;;5054779;28;20674;-76
2022/11/20 12:48:24;;;;;;;;;;;19.00;70.80;;;;;;5056911;28;19928;-73
2022/11/20 12:51:16;;;;;;;;;;;18.90;71.20;;;;;;4952766;28;19969;-77
2022/11/20 12:54:01;;;;;;;;;;;18.80;70.90;;;;;;5053077;28;19928;-73
2022/11/20 12:56:46;;;;;;;;;;;18.80;71.10;;;;;;5052982;28;20286;-74
2022/11/20 12:59:15;;;;;;;;;;;18.80;71.10;;;;;;5053630;28;19920;-76
2022/11/20 13:02:17;;;;;;;;;;;18.80;70.80;;;;;;5057987;28;19927;-73
2022/11/20 13:04:56;;;;;;;;;;;18.70;70.90;;;;;;4973173;28;19976;-75
2022/11/20 13:07:23;;;;;;;;;;;18.70;71.40;;;;;;5045603;28;20458;-75
2022/11/20 13:09:51;;;;;;;;;;;18.60;72.00;;;;;;5054342;28;20405;-77
2022/11/20 13:12:20;;;;;;;;;;;18.50;71.90;;;;;;5053892;28;19941;-75
2022/11/20 13:14:50;;;;;;;;;;;18.40;71.60;;;;;;5056545;28;19916;-75
2022/11/20 13:17:21;;;;;;;;;;;18.40;71.80;;;;;;5054891;28;19916;-72
2022/11/20 13:19:53;;;;;;;;;;;18.30;72.10;;;;;;5057018;28;20050;-75
2022/11/20 13:22:26;;;;;;;;;;;18.20;72.60;;;;;;5059687;28;19932;-75
2022/11/20 13:24:53;;;;;;;;;;;18.00;73.30;;;;;;5060421;28;20007;-76
2022/11/20 13:27:23;;;;;;;;;;;17.90;74.30;;;;;;5058263;28;20287;-72
2022/11/20 13:30:01;;;;;;;;;;;17.70;75.40;;;;;;5060235;28;20551;-74
2022/11/20 13:32:31;;;;;;;;;;;17.60;74.20;;;;;;5060170;28;20692;-75
2022/11/20 13:35:02;;;;;;;;;;;17.60;75.30;;;;;;5059745;28;19916;-72
2022/11/20 13:37:33;;;;;;;;;;;17.60;74.50;;;;;;5057782;28;20012;-73
2022/11/20 13:40:10;;;;;;;;;;;17.60;74.40;;;;;;5058260;28;19921;-74
2022/11/20 13:42:39;;;;;;;;;;;17.50;74.70;;;;;;5060196;28;20015;-76
2022/11/20 13:45:10;;;;;;;;;;;17.40;75.00;;;;;;5059239;28;19962;-74
2022/11/20 13:47:37;;;;;;;;;;;17.30;75.80;;;;;;5061382;28;20403;-74
2022/11/20 13:50:04;;;;;;;;;;;17.20;75.50;;;;;;5061180;28;19963;-73
2022/11/20 13:52:50;;;;;;;;;;;17.30;75.10;;;;;;5057855;28;19916;-76
2022/11/20 13:55:26;;;;;;;;;;;17.20;76.00;;;;;;5059154;28;20373;-75
2022/11/20 13:58:11;;;;;;;;;;;17.20;76.40;;;;;;5060407;28;19916;-75
2022/11/20 14:00:45;;;;;;;;;;;17.10;76.50;;;;;;5059951;28;19939;-75
2022/11/20 14:03:23;;;;;;;;;;;17.00;76.50;;;;;;5056360;28;19927;-73
2022/11/20 14:05:55;;;;;;;;;;;17.00;77.50;;;;;;5059856;28;20339;-75
2022/11/20 14:08:25;;;;;;;;;;;16.90;77.30;;;;;;5063128;28;19964;-70
2022/11/20 14:11:02;;;;;;;;;;;16.90;76.40;;;;;;5074748;28;20016;-75
2022/11/20 14:13:28;;;;;;;;;;;16.90;76.90;;;;;;5067524;28;19920;-75
2022/11/20 14:15:59;;;;;;;;;;;17.00;76.40;;;;;;5060341;28;20229;-77
2022/11/20 14:18:27;;;;;;;;;;;17.10;77.10;;;;;;5059856;28;19959;-75
2022/11/20 14:20:53;;;;;;;;;;;17.10;76.50;;;;;;5058534;28;19921;-74
2022/11/20 14:23:28;;;;;;;;;;;17.20;76.40;;;;;;5054974;28;20046;-71
2022/11/20 14:25:54;;;;;;;;;;;17.20;76.60;;;;;;5034704;28;20017;-76
2022/11/20 14:28:31;;;;;;;;;;;17.20;76.80;;;;;;5059507;28;19929;-75
2022/11/20 14:30:58;;;;;;;;;;;17.10;76.70;;;;;;5058493;28;19978;-73
2022/11/20 14:33:26;;;;;;;;;;;17.10;77.00;;;;;;5058347;28;19958;-76
2022/11/20 14:35:56;;;;;;;;;;;17.10;77.00;;;;;;5060738;28;19923;-74
2022/11/20 14:38:27;;;;;;;;;;;17.00;77.40;;;;;;5058911;28;19943;-75
2022/11/20 14:40:54;;;;;;;;;;;17.00;76.90;;;;;;5058537;28;19920;-73